CheckWX is a tool to help pilots better visualize weather data.  It is not intended as a substitute for an official pre-flight weather briefing.

11:22:19 UTC

KFLD METAR
Fond Du Lac County Airport
Fond Du Lac, Wisconsin, USA
Current

29 mins ago

KFLD 241053Z AUTO 18005KT 6SM BR FEW080 19/17 A2960 RMK AO2 SLP019 T01890172
Observed
Jun-24 @ 10:53 UTC
Wind
  • 180° at 5 KTS
Visibility
6 SM
Flight Rules
VFR
Conditions
Mist
Cloud Levels
  • Few at 8,000' AGL
Temperature
19°C / 66°F
Dewpoint
17°C / 63°F
Humidity
88%
Altimeter
29.6" Hg
Pressure
1002.42 hPa
Previous

1 hour ago

KFLD 240953Z AUTO 17004KT 9SM CLR 19/17 A2960 RMK AO2 SLP018 T01890167
Observed
Jun-24 @ 09:53 UTC
Wind
  • 170° at 4 KTS
Visibility
9 SM
Flight Rules
VFR
Cloud Levels
  • Clear skies
Temperature
19°C / 66°F
Dewpoint
17°C / 63°F
Humidity
88%
Altimeter
29.6" Hg
Pressure
1002.42 hPa
Previous

2 hours ago

KFLD 240853Z AUTO 18003KT 10SM BKN085 OVC120 19/17 A2961 RMK AO2 SLP024 T01940167 58009
Observed
Jun-24 @ 08:53 UTC
Wind
  • 180° at 3 KTS
Visibility
10 SM
Flight Rules
VFR
Cloud Levels
  • Broken at 8,500' AGL
  • Overcast at 12,000' AGL
Temperature
19°C / 66°F
Dewpoint
17°C / 63°F
Humidity
88%
Altimeter
29.61" Hg
Pressure
1002.72 hPa